sensor_id;sensor_type;location;lat;lon;timestamp;temperature;humidity
44435;DHT22;30138;20.964;105.830;2022-12-18T00:02:30;20.30;55.50
44435;DHT22;30138;20.964;105.830;2022-12-18T00:07:39;20.30;55.60
44435;DHT22;30138;20.964;105.830;2022-12-18T00:12:47;20.30;55.70
44435;DHT22;30138;20.964;105.830;2022-12-18T00:17:56;20.30;55.60
44435;DHT22;30138;20.964;105.830;2022-12-18T00:23:04;20.30;55.60
44435;DHT22;30138;20.964;105.830;2022-12-18T00:28:12;20.30;55.70
44435;DHT22;30138;20.964;105.830;2022-12-18T00:33:21;20.30;55.60
44435;DHT22;30138;20.964;105.830;2022-12-18T00:38:29;20.30;55.60
44435;DHT22;30138;20.964;105.830;2022-12-18T00:43:38;20.30;55.50
44435;DHT22;30138;20.964;105.830;2022-12-18T00:48:48;20.30;55.40
44435;DHT22;30138;20.964;105.830;2022-12-18T00:53:56;20.30;55.20
44435;DHT22;30138;20.964;105.830;2022-12-18T00:59:04;20.30;55.30
44435;DHT22;30138;20.964;105.830;2022-12-18T01:04:14;20.30;55.20
44435;DHT22;30138;20.964;105.830;2022-12-18T01:09:22;20.30;55.20
44435;DHT22;30138;20.964;105.830;2022-12-18T01:14:29;20.30;55.10
44435;DHT22;30138;20.964;105.830;2022-12-18T01:19:39;20.30;55.20
44435;DHT22;30138;20.964;105.830;2022-12-18T01:24:46;20.30;55.10
44435;DHT22;30138;20.964;105.830;2022-12-18T01:29:54;20.20;54.90
44435;DHT22;30138;20.964;105.830;2022-12-18T01:35:09;20.20;54.80
44435;DHT22;30138;20.964;105.830;2022-12-18T01:40:16;20.30;54.70
44435;DHT22;30138;20.964;105.830;2022-12-18T01:45:29;20.20;54.90
44435;DHT22;30138;20.964;105.830;2022-12-18T01:50:40;20.20;55.00
44435;DHT22;30138;20.964;105.830;2022-12-18T01:55:50;20.20;54.60
44435;DHT22;30138;20.964;105.830;2022-12-18T02:00:58;20.20;54.50
44435;DHT22;30138;20.964;105.830;2022-12-18T02:06:15;20.30;54.40
44435;DHT22;30138;20.964;105.830;2022-12-18T02:11:35;20.30;54.30
44435;DHT22;30138;20.964;105.830;2022-12-18T02:16:52;20.40;55.10
44435;DHT22;30138;20.964;105.830;2022-12-18T02:22:19;20.50;54.20
44435;DHT22;30138;20.964;105.830;2022-12-18T02:27:34;20.60;53.90
44435;DHT22;30138;20.964;105.830;2022-12-18T02:32:42;20.70;53.70
44435;DHT22;30138;20.964;105.830;2022-12-18T02:37:54;20.80;53.40
44435;DHT22;30138;20.964;105.830;2022-12-18T02:43:08;20.90;53.30
44435;DHT22;30138;20.964;105.830;2022-12-18T02:48:15;20.90;53.30
44435;DHT22;30138;20.964;105.830;2022-12-18T02:53:30;21.00;53.00
44435;DHT22;30138;20.964;105.830;2022-12-18T02:58:50;21.10;52.90
44435;DHT22;30138;20.964;105.830;2022-12-18T03:04:16;21.20;53.20
44435;DHT22;30138;20.964;105.830;2022-12-18T03:09:31;21.30;53.20
44435;DHT22;30138;20.964;105.830;2022-12-18T03:14:43;21.40;53.20
44435;DHT22;30138;20.964;105.830;2022-12-18T03:19:56;21.50;53.00
44435;DHT22;30138;20.964;105.830;2022-12-18T03:25:12;21.50;53.30
44435;DHT22;30138;20.964;105.830;2022-12-18T03:30:24;21.50;53.30
44435;DHT22;30138;20.964;105.830;2022-12-18T03:35:35;21.60;53.10
44435;DHT22;30138;20.964;105.830;2022-12-18T03:40:53;21.60;53.10
44435;DHT22;30138;20.964;105.830;2022-12-18T03:46:17;21.70;53.30
44435;DHT22;30138;20.964;105.830;2022-12-18T03:51:36;21.70;53.50
44435;DHT22;30138;20.964;105.830;2022-12-18T03:56:48;21.80;53.20
44435;DHT22;30138;20.964;105.830;2022-12-18T04:02:05;21.80;53.20
44435;DHT22;30138;20.964;105.830;2022-12-18T04:07:17;21.80;53.00
44435;DHT22;30138;20.964;105.830;2022-12-18T04:12:26;21.90;52.90
44435;DHT22;30138;20.964;105.830;2022-12-18T04:17:36;21.90;52.70
44435;DHT22;30138;20.964;105.830;2022-12-18T04:22:44;21.90;52.60
44435;DHT22;30138;20.964;105.830;2022-12-18T04:27:55;22.00;52.60
44435;DHT22;30138;20.964;105.830;2022-12-18T04:33:10;22.00;52.80
44435;DHT22;30138;20.964;105.830;2022-12-18T04:38:19;22.10;52.80
44435;DHT22;30138;20.964;105.830;2022-12-18T04:43:35;22.10;52.80
44435;DHT22;30138;20.964;105.830;2022-12-18T04:48:46;22.10;52.80
44435;DHT22;30138;20.964;105.830;2022-12-18T04:53:54;22.10;52.80
44435;DHT22;30138;20.964;105.830;2022-12-18T04:59:01;22.20;52.80
44435;DHT22;30138;20.964;105.830;2022-12-18T05:04:11;22.20;52.70
44435;DHT22;30138;20.964;105.830;2022-12-18T05:09:19;22.20;52.60
44435;DHT22;30138;20.964;105.830;2022-12-18T05:14:28;22.20;52.60
44435;DHT22;30138;20.964;105.830;2022-12-18T05:19:38;22.30;52.60
44435;DHT22;30138;20.964;105.830;2022-12-18T05:24:45;22.30;52.50
44435;DHT22;30138;20.964;105.830;2022-12-18T05:29:53;22.30;52.50
44435;DHT22;30138;20.964;105.830;2022-12-18T05:35:04;22.30;52.50
44435;DHT22;30138;20.964;105.830;2022-12-18T05:40:13;22.40;52.50
44435;DHT22;30138;20.964;105.830;2022-12-18T05:45:21;22.40;52.40
44435;DHT22;30138;20.964;105.830;2022-12-18T05:50:33;22.50;52.70
44435;DHT22;30138;20.964;105.830;2022-12-18T05:55:41;22.50;52.60
44435;DHT22;30138;20.964;105.830;2022-12-18T06:00:49;22.50;52.70
44435;DHT22;30138;20.964;105.830;2022-12-18T06:05:58;22.50;52.60
44435;DHT22;30138;20.964;105.830;2022-12-18T06:11:06;22.60;52.30
44435;DHT22;30138;20.964;105.830;2022-12-18T06:16:13;22.60;52.30
44435;DHT22;30138;20.964;105.830;2022-12-18T06:21:23;22.60;52.50
44435;DHT22;30138;20.964;105.830;2022-12-18T06:26:30;22.60;52.50
44435;DHT22;30138;20.964;105.830;2022-12-18T06:31:38;22.70;52.50
44435;DHT22;30138;20.964;105.830;2022-12-18T06:36:47;22.80;52.50
44435;DHT22;30138;20.964;105.830;2022-12-18T06:41:55;22.80;52.40
44435;DHT22;30138;20.964;105.830;2022-12-18T06:47:06;22.80;52.30
44435;DHT22;30138;20.964;105.830;2022-12-18T06:52:16;22.90;52.30
44435;DHT22;30138;20.964;105.830;2022-12-18T06:57:24;22.90;52.10
44435;DHT22;30138;20.964;105.830;2022-12-18T07:02:33;23.00;52.10
44435;DHT22;30138;20.964;105.830;2022-12-18T07:07:44;23.00;52.20
44435;DHT22;30138;20.964;105.830;2022-12-18T07:12:55;23.00;52.50
44435;DHT22;30138;20.964;105.830;2022-12-18T07:18:06;23.00;52.30
44435;DHT22;30138;20.964;105.830;2022-12-18T07:23:16;23.10;52.60
44435;DHT22;30138;20.964;105.830;2022-12-18T07:28:26;23.10;52.50
44435;DHT22;30138;20.964;105.830;2022-12-18T07:33:34;23.10;52.50
44435;DHT22;30138;20.964;105.830;2022-12-18T07:38:46;23.10;52.70
44435;DHT22;30138;20.964;105.830;2022-12-18T07:43:59;23.10;52.60
44435;DHT22;30138;20.964;105.830;2022-12-18T07:49:07;23.10;52.80
44435;DHT22;30138;20.964;105.830;2022-12-18T07:54:17;23.10;52.70
44435;DHT22;30138;20.964;105.830;2022-12-18T07:59:26;23.20;52.70
44435;DHT22;30138;20.964;105.830;2022-12-18T08:04:34;23.20;52.60
44435;DHT22;30138;20.964;105.830;2022-12-18T08:09:43;23.20;52.50
44435;DHT22;30138;20.964;105.830;2022-12-18T08:14:51;23.20;52.80
44435;DHT22;30138;20.964;105.830;2022-12-18T08:19:59;23.20;52.90
44435;DHT22;30138;20.964;105.830;2022-12-18T08:25:09;23.20;53.10
44435;DHT22;30138;20.964;105.830;2022-12-18T08:30:17;23.20;53.20
44435;DHT22;30138;20.964;105.830;2022-12-18T08:35:24;23.20;53.40
44435;DHT22;30138;20.964;105.830;2022-12-18T08:40:36;23.10;53.40
44435;DHT22;30138;20.964;105.830;2022-12-18T08:45:46;23.10;53.20
44435;DHT22;30138;20.964;105.830;2022-12-18T08:50:57;23.10;53.30
44435;DHT22;30138;20.964;105.830;2022-12-18T08:56:08;23.10;53.40
44435;DHT22;30138;20.964;105.830;2022-12-18T09:01:17;23.00;53.40
44435;DHT22;30138;20.964;105.830;2022-12-18T09:06:25;23.00;53.90
44435;DHT22;30138;20.964;105.830;2022-12-18T09:11:35;23.00;54.00
44435;DHT22;30138;20.964;105.830;2022-12-18T09:16:42;22.90;53.70
44435;DHT22;30138;20.964;105.830;2022-12-18T09:21:51;22.90;53.90
44435;DHT22;30138;20.964;105.830;2022-12-18T09:27:01;22.80;53.30
44435;DHT22;30138;20.964;105.830;2022-12-18T09:32:08;22.80;53.40
44435;DHT22;30138;20.964;105.830;2022-12-18T09:37:16;22.80;53.70
44435;DHT22;30138;20.964;105.830;2022-12-18T09:42:25;22.70;53.70
44435;DHT22;30138;20.964;105.830;2022-12-18T09:47:36;22.70;53.60
44435;DHT22;30138;20.964;105.830;2022-12-18T09:52:46;22.70;53.40
44435;DHT22;30138;20.964;105.830;2022-12-18T09:58:02;22.60;52.70
44435;DHT22;30138;20.964;105.830;2022-12-18T10:03:13;22.60;52.40
44435;DHT22;30138;20.964;105.830;2022-12-18T10:08:25;22.60;51.80
44435;DHT22;30138;20.964;105.830;2022-12-18T10:13:48;22.50;50.70
44435;DHT22;30138;20.964;105.830;2022-12-18T10:19:12;22.50;50.30
44435;DHT22;30138;20.964;105.830;2022-12-18T10:24:35;22.40;49.60
44435;DHT22;30138;20.964;105.830;2022-12-18T10:29:50;22.40;49.50
44435;DHT22;30138;20.964;105.830;2022-12-18T10:34:59;22.40;49.50
44435;DHT22;30138;20.964;105.830;2022-12-18T10:40:12;22.40;48.90
44435;DHT22;30138;20.964;105.830;2022-12-18T10:45:22;22.30;48.20
44435;DHT22;30138;20.964;105.830;2022-12-18T10:50:32;22.30;47.60
44435;DHT22;30138;20.964;105.830;2022-12-18T10:55:40;22.30;46.90
44435;DHT22;30138;20.964;105.830;2022-12-18T11:01:06;22.30;46.40
44435;DHT22;30138;20.964;105.830;2022-12-18T11:06:16;22.30;45.80
44435;DHT22;30138;20.964;105.830;2022-12-18T11:11:25;22.20;45.70
44435;DHT22;30138;20.964;105.830;2022-12-18T11:16:36;22.20;45.40
44435;DHT22;30138;20.964;105.830;2022-12-18T11:21:49;22.20;45.90
44435;DHT22;30138;20.964;105.830;2022-12-18T11:26:59;22.20;45.80
44435;DHT22;30138;20.964;105.830;2022-12-18T11:32:29;22.20;46.00
44435;DHT22;30138;20.964;105.830;2022-12-18T11:37:40;22.20;45.70
44435;DHT22;30138;20.964;105.830;2022-12-18T11:42:53;22.20;45.40
44435;DHT22;30138;20.964;105.830;2022-12-18T11:48:09;22.20;45.80
44435;DHT22;30138;20.964;105.830;2022-12-18T11:53:20;22.10;46.20
44435;DHT22;30138;20.964;105.830;2022-12-18T11:58:46;22.20;46.40
44435;DHT22;30138;20.964;105.830;2022-12-18T12:10:33;22.10;47.20
44435;DHT22;30138;20.964;105.830;2022-12-18T12:15:59;22.10;46.00
44435;DHT22;30138;20.964;105.830;2022-12-18T12:21:20;22.10;46.00
44435;DHT22;30138;20.964;105.830;2022-12-18T12:26:35;22.10;46.30
44435;DHT22;30138;20.964;105.830;2022-12-18T12:32:03;22.10;46.60
44435;DHT22;30138;20.964;105.830;2022-12-18T12:37:24;22.10;47.00
44435;DHT22;30138;20.964;105.830;2022-12-18T12:42:44;22.10;47.10
44435;DHT22;30138;20.964;105.830;2022-12-18T12:48:17;22.00;47.80
44435;DHT22;30138;20.964;105.830;2022-12-18T12:53:40;22.00;47.20
44435;DHT22;30138;20.964;105.830;2022-12-18T12:58:55;22.10;47.30
44435;DHT22;30138;20.964;105.830;2022-12-18T13:04:15;22.00;47.10
44435;DHT22;30138;20.964;105.830;2022-12-18T13:09:33;22.00;46.70
44435;DHT22;30138;20.964;105.830;2022-12-18T13:14:42;22.00;46.50
44435;DHT22;30138;20.964;105.830;2022-12-18T13:19:51;21.90;46.50
44435;DHT22;30138;20.964;105.830;2022-12-18T13:25:34;22.00;46.60
44435;DHT22;30138;20.964;105.830;2022-12-18T13:30:48;21.90;46.30
44435;DHT22;30138;20.964;105.830;2022-12-18T13:36:04;21.90;46.00
44435;DHT22;30138;20.964;105.830;2022-12-18T13:41:28;21.90;46.00
44435;DHT22;30138;20.964;105.830;2022-12-18T13:46:43;21.90;46.10
44435;DHT22;30138;20.964;105.830;2022-12-18T13:51:53;21.90;46.30
44435;DHT22;30138;20.964;105.830;2022-12-18T13:57:03;21.80;46.70
44435;DHT22;30138;20.964;105.830;2022-12-18T14:02:15;21.80;46.90
44435;DHT22;30138;20.964;105.830;2022-12-18T14:07:25;21.80;46.90
44435;DHT22;30138;20.964;105.830;2022-12-18T14:12:37;21.80;46.80
44435;DHT22;30138;20.964;105.830;2022-12-18T14:18:09;21.80;46.60
44435;DHT22;30138;20.964;105.830;2022-12-18T14:23:29;21.80;46.60
44435;DHT22;30138;20.964;105.830;2022-12-18T14:28:47;21.70;46.50
44435;DHT22;30138;20.964;105.830;2022-12-18T14:33:54;21.70;46.40
44435;DHT22;30138;20.964;105.830;2022-12-18T14:39:03;21.70;46.40
44435;DHT22;30138;20.964;105.830;2022-12-18T14:44:14;21.70;46.30
44435;DHT22;30138;20.964;105.830;2022-12-18T14:49:24;21.70;46.20
44435;DHT22;30138;20.964;105.830;2022-12-18T14:54:36;21.70;46.20
44435;DHT22;30138;20.964;105.830;2022-12-18T14:59:53;21.70;46.30
44435;DHT22;30138;20.964;105.830;2022-12-18T15:05:04;21.70;46.20
44435;DHT22;30138;20.964;105.830;2022-12-18T15:10:24;21.60;46.10
44435;DHT22;30138;20.964;105.830;2022-12-18T15:15:50;21.60;46.20
44435;DHT22;30138;20.964;105.830;2022-12-18T15:21:08;21.60;46.30
44435;DHT22;30138;20.964;105.830;2022-12-18T15:26:21;21.60;46.50
44435;DHT22;30138;20.964;105.830;2022-12-18T15:31:34;21.60;46.70
44435;DHT22;30138;20.964;105.830;2022-12-18T15:36:42;21.60;46.90
44435;DHT22;30138;20.964;105.830;2022-12-18T15:41:51;21.60;47.00
44435;DHT22;30138;20.964;105.830;2022-12-18T15:47:16;21.60;47.10
44435;DHT22;30138;20.964;105.830;2022-12-18T15:52:30;21.50;47.30
44435;DHT22;30138;20.964;105.830;2022-12-18T15:57:39;21.50;47.20
44435;DHT22;30138;20.964;105.830;2022-12-18T16:02:50;21.50;47.20
44435;DHT22;30138;20.964;105.830;2022-12-18T16:07:58;21.50;47.20
44435;DHT22;30138;20.964;105.830;2022-12-18T16:13:06;21.50;47.50
44435;DHT22;30138;20.964;105.830;2022-12-18T16:18:22;21.50;47.70
44435;DHT22;30138;20.964;105.830;2022-12-18T16:23:33;21.50;48.80
44435;DHT22;30138;20.964;105.830;2022-12-18T16:28:41;21.40;48.80
44435;DHT22;30138;20.964;105.830;2022-12-18T16:34:11;21.40;49.20
44435;DHT22;30138;20.964;105.830;2022-12-18T16:39:19;21.40;49.80
44435;DHT22;30138;20.964;105.830;2022-12-18T16:44:27;21.40;49.40
44435;DHT22;30138;20.964;105.830;2022-12-18T16:49:39;21.40;49.60
44435;DHT22;30138;20.964;105.830;2022-12-18T16:54:49;21.40;50.00
44435;DHT22;30138;20.964;105.830;2022-12-18T16:59:56;21.40;50.90
44435;DHT22;30138;20.964;105.830;2022-12-18T17:05:07;21.40;51.40
44435;DHT22;30138;20.964;105.830;2022-12-18T17:10:17;21.40;51.60
44435;DHT22;30138;20.964;105.830;2022-12-18T17:15:25;21.40;52.20
44435;DHT22;30138;20.964;105.830;2022-12-18T17:20:35;21.40;52.00
44435;DHT22;30138;20.964;105.830;2022-12-18T17:25:42;21.30;52.40
44435;DHT22;30138;20.964;105.830;2022-12-18T17:30:50;21.30;52.30
44435;DHT22;30138;20.964;105.830;2022-12-18T17:36:00;21.30;52.00
44435;DHT22;30138;20.964;105.830;2022-12-18T17:41:09;21.30;52.60
44435;DHT22;30138;20.964;105.830;2022-12-18T17:46:20;21.30;52.80
44435;DHT22;30138;20.964;105.830;2022-12-18T17:51:32;21.30;52.90
44435;DHT22;30138;20.964;105.830;2022-12-18T17:56:40;21.20;52.90
44435;DHT22;30138;20.964;105.830;2022-12-18T18:01:47;21.20;53.20
44435;DHT22;30138;20.964;105.830;2022-12-18T18:06:57;21.20;53.20
44435;DHT22;30138;20.964;105.830;2022-12-18T18:12:05;21.20;53.50
44435;DHT22;30138;20.964;105.830;2022-12-18T18:17:29;21.20;53.50
44435;DHT22;30138;20.964;105.830;2022-12-18T18:22:39;21.10;53.40
44435;DHT22;30138;20.964;105.830;2022-12-18T18:27:48;21.20;53.70
44435;DHT22;30138;20.964;105.830;2022-12-18T18:32:56;21.10;53.90
44435;DHT22;30138;20.964;105.830;2022-12-18T18:38:05;21.10;53.80
44435;DHT22;30138;20.964;105.830;2022-12-18T18:43:16;21.10;53.50
44435;DHT22;30138;20.964;105.830;2022-12-18T18:48:23;21.10;54.10
44435;DHT22;30138;20.964;105.830;2022-12-18T18:53:35;21.00;54.20
44435;DHT22;30138;20.964;105.830;2022-12-18T18:58:43;21.00;54.10
44435;DHT22;30138;20.964;105.830;2022-12-18T19:03:52;21.00;53.90
44435;DHT22;30138;20.964;105.830;2022-12-18T19:09:02;20.90;54.00
44435;DHT22;30138;20.964;105.830;2022-12-18T19:14:11;21.00;54.90
44435;DHT22;30138;20.964;105.830;2022-12-18T19:19:19;20.90;54.10
44435;DHT22;30138;20.964;105.830;2022-12-18T19:24:29;20.90;53.70
44435;DHT22;30138;20.964;105.830;2022-12-18T19:29:36;20.90;53.80
44435;DHT22;30138;20.964;105.830;2022-12-18T19:34:45;20.90;54.30
44435;DHT22;30138;20.964;105.830;2022-12-18T19:39:55;20.90;54.10
44435;DHT22;30138;20.964;105.830;2022-12-18T19:45:03;20.80;53.90
44435;DHT22;30138;20.964;105.830;2022-12-18T19:50:11;20.80;53.70
44435;DHT22;30138;20.964;105.830;2022-12-18T19:55:20;20.80;54.00
44435;DHT22;30138;20.964;105.830;2022-12-18T20:00:29;20.80;54.40
44435;DHT22;30138;20.964;105.830;2022-12-18T20:05:37;20.70;54.30
44435;DHT22;30138;20.964;105.830;2022-12-18T20:10:46;20.70;54.30
44435;DHT22;30138;20.964;105.830;2022-12-18T20:15:53;20.70;54.60
44435;DHT22;30138;20.964;105.830;2022-12-18T20:21:01;20.70;54.80
44435;DHT22;30138;20.964;105.830;2022-12-18T20:26:10;20.70;55.20
44435;DHT22;30138;20.964;105.830;2022-12-18T20:31:18;20.60;55.50
44435;DHT22;30138;20.964;105.830;2022-12-18T20:36:25;20.60;55.60
44435;DHT22;30138;20.964;105.830;2022-12-18T20:41:35;20.60;55.80
44435;DHT22;30138;20.964;105.830;2022-12-18T20:46:43;20.50;55.80
44435;DHT22;30138;20.964;105.830;2022-12-18T20:51:52;20.50;55.90
44435;DHT22;30138;20.964;105.830;2022-12-18T20:57:02;20.50;56.00
44435;DHT22;30138;20.964;105.830;2022-12-18T21:02:11;20.50;56.10
44435;DHT22;30138;20.964;105.830;2022-12-18T21:07:19;20.50;56.10
44435;DHT22;30138;20.964;105.830;2022-12-18T21:12:29;20.50;56.10
44435;DHT22;30138;20.964;105.830;2022-12-18T21:17:38;20.50;56.30
44435;DHT22;30138;20.964;105.830;2022-12-18T21:22:45;20.40;56.00
44435;DHT22;30138;20.964;105.830;2022-12-18T21:27:54;20.40;55.90
44435;DHT22;30138;20.964;105.830;2022-12-18T21:33:02;20.40;55.80
44435;DHT22;30138;20.964;105.830;2022-12-18T21:38:10;20.30;55.70
44435;DHT22;30138;20.964;105.830;2022-12-18T21:43:20;20.30;55.50
44435;DHT22;30138;20.964;105.830;2022-12-18T21:48:45;20.30;55.60
44435;DHT22;30138;20.964;105.830;2022-12-18T21:53:53;20.30;55.70
44435;DHT22;30138;20.964;105.830;2022-12-18T21:59:04;20.20;55.60
44435;DHT22;30138;20.964;105.830;2022-12-18T22:04:12;20.20;55.60
44435;DHT22;30138;20.964;105.830;2022-12-18T22:09:21;20.20;55.70
44435;DHT22;30138;20.964;105.830;2022-12-18T22:14:32;20.20;55.60
44435;DHT22;30138;20.964;105.830;2022-12-18T22:19:40;20.10;55.70
44435;DHT22;30138;20.964;105.830;2022-12-18T22:24:47;20.10;55.70
44435;DHT22;30138;20.964;105.830;2022-12-18T22:29:58;20.10;55.70
44435;DHT22;30138;20.964;105.830;2022-12-18T22:35:11;20.10;55.80
44435;DHT22;30138;20.964;105.830;2022-12-18T22:40:20;20.10;55.90
44435;DHT22;30138;20.964;105.830;2022-12-18T22:45:31;20.00;55.90
44435;DHT22;30138;20.964;105.830;2022-12-18T22:50:38;20.00;56.00
44435;DHT22;30138;20.964;105.830;2022-12-18T22:55:46;20.00;56.20
44435;DHT22;30138;20.964;105.830;2022-12-18T23:00:56;19.90;56.10
44435;DHT22;30138;20.964;105.830;2022-12-18T23:06:08;19.90;56.20
44435;DHT22;30138;20.964;105.830;2022-12-18T23:11:16;19.90;56.40
44435;DHT22;30138;20.964;105.830;2022-12-18T23:16:26;19.90;56.60
44435;DHT22;30138;20.964;105.830;2022-12-18T23:21:36;19.90;56.80
44435;DHT22;30138;20.964;105.830;2022-12-18T23:26:43;19.80;56.90
44435;DHT22;30138;20.964;105.830;2022-12-18T23:31:53;19.80;57.00
44435;DHT22;30138;20.964;105.830;2022-12-18T23:37:01;19.80;57.40
44435;DHT22;30138;20.964;105.830;2022-12-18T23:42:08;19.80;57.60
44435;DHT22;30138;20.964;105.830;2022-12-18T23:47:17;19.80;57.90
44435;DHT22;30138;20.964;105.830;2022-12-18T23:52:25;19.80;58.10
44435;DHT22;30138;20.964;105.830;2022-12-18T23:57:32;19.70;58.40
